Time;durP1;ratioP1;P1;durP2;ratioP2;P2;SDS_P1;SDS_P2;PMS_P1;PMS_P2;Temp;Humidity;BMP_temperature;BMP_pressure;BME280_temperature;BME280_humidity;BME280_pressure;Samples;Min_cycle;Max_cycle;Signal;HPM_P1;HPM_P2
2024/03/13 00:01:03;;;;;;;114.20;53.08;;;6.40;99.90;;;;;;5062251;28;20207;-71
2024/03/13 00:03:32;;;;;;;116.68;54.00;;;6.40;99.90;;;;;;5062110;28;20179;-71
2024/03/13 00:05:58;;;;;;;123.10;56.38;;;6.40;99.90;;;;;;5062030;28;20269;-70
2024/03/13 00:08:23;;;;;;;118.63;54.70;;;6.50;99.90;;;;;;5060075;28;20223;-70
2024/03/13 00:10:50;;;;;;;122.25;56.25;;;6.50;99.90;;;;;;5060512;28;20183;-73
2024/03/13 00:13:16;;;;;;;130.20;59.95;;;6.40;99.90;;;;;;5061982;28;20191;-70
2024/03/13 00:15:42;;;;;;;118.40;55.10;;;6.40;99.90;;;;;;5061848;28;20233;-72
2024/03/13 00:18:08;;;;;;;119.18;55.95;;;6.40;99.90;;;;;;5061065;28;20175;-72
2024/03/13 00:20:34;;;;;;;118.93;55.80;;;6.40;99.90;;;;;;5061422;28;20558;-72
2024/03/13 00:23:01;;;;;;;126.80;58.08;;;6.40;99.90;;;;;;5062185;28;20620;-70
2024/03/13 00:25:28;;;;;;;131.50;58.80;;;6.40;99.90;;;;;;5061817;28;20195;-71
2024/03/13 00:27:55;;;;;;;119.55;56.40;;;6.30;99.90;;;;;;5060704;28;20216;-71
2024/03/13 00:30:22;;;;;;;125.82;58.08;;;6.30;99.90;;;;;;5058223;28;20218;-72
2024/03/13 00:32:53;;;;;;;125.22;55.00;;;6.30;99.90;;;;;;5059972;28;20182;-72
2024/03/13 00:35:20;;;;;;;121.97;57.28;;;6.30;99.90;;;;;;5058939;28;20209;-71
2024/03/13 00:37:47;;;;;;;126.97;56.10;;;6.40;99.90;;;;;;5061833;28;20677;-71
2024/03/13 00:40:16;;;;;;;133.63;59.55;;;6.40;99.90;;;;;;5060010;28;20780;-70
2024/03/13 00:42:45;;;;;;;121.68;57.83;;;6.40;99.90;;;;;;5058827;28;20197;-71
2024/03/13 00:45:11;;;;;;;122.82;57.53;;;6.40;99.90;;;;;;5061553;28;20203;-70
2024/03/13 00:47:38;;;;;;;118.95;56.80;;;6.50;99.90;;;;;;5061327;28;20205;-71
2024/03/13 00:50:08;;;;;;;122.22;56.47;;;6.50;99.90;;;;;;5061105;28;20253;-69
2024/03/13 00:52:36;;;;;;;116.63;54.72;;;6.50;99.90;;;;;;5060079;28;20202;-72
2024/03/13 00:55:03;;;;;;;127.85;58.30;;;6.50;99.90;;;;;;5059834;28;20651;-70
2024/03/13 00:57:29;;;;;;;126.38;59.28;;;6.50;99.90;;;;;;5061684;28;20199;-72
2024/03/13 00:59:54;;;;;;;125.90;56.75;;;6.60;99.90;;;;;;5061723;28;20202;-71
2024/03/13 01:02:23;;;;;;;122.07;57.75;;;6.60;99.90;;;;;;5059744;28;20614;-70
2024/03/13 01:04:49;;;;;;;125.97;57.38;;;6.60;99.90;;;;;;5061105;28;20186;-71
2024/03/13 01:07:15;;;;;;;123.80;55.42;;;6.60;99.90;;;;;;5061478;28;20277;-70
2024/03/13 01:09:41;;;;;;;115.95;53.78;;;6.70;99.90;;;;;;5061093;28;20758;-71
2024/03/13 01:12:07;;;;;;;114.25;55.85;;;6.70;99.90;;;;;;5061190;28;20217;-71
2024/03/13 01:14:34;;;;;;;116.25;54.78;;;6.70;99.90;;;;;;5061370;28;20183;-71
2024/03/13 01:17:02;;;;;;;120.75;59.42;;;6.80;99.90;;;;;;5060765;28;20422;-70
2024/03/13 01:19:33;;;;;;;115.43;56.10;;;6.80;99.90;;;;;;5061500;28;20195;-71
2024/03/13 01:22:17;;;;;;;116.95;55.75;;;6.90;99.90;;;;;;5061010;28;20226;-71
2024/03/13 01:24:45;;;;;;;109.03;51.92;;;6.90;99.90;;;;;;5059763;28;20329;-74
2024/03/13 01:27:11;;;;;;;113.43;54.00;;;6.90;99.90;;;;;;5060744;28;20642;-73
2024/03/13 01:29:41;;;;;;;113.65;52.60;;;7.00;99.90;;;;;;5061070;28;20213;-74
2024/03/13 01:32:07;;;;;;;115.05;52.80;;;7.00;99.90;;;;;;5064383;28;20206;-75
2024/03/13 01:34:33;;;;;;;120.40;56.40;;;7.00;99.90;;;;;;5065173;28;21130;-71
2024/03/13 01:39:44;;;;;;;111.35;54.60;;;7.10;99.90;;;;;;5064885;28;20201;-73
2024/03/13 01:56:31;;;;;;;104.85;50.35;;;7.30;99.90;;;;;;5063776;28;20190;-73
2024/03/13 01:59:20;;;;;;;109.43;52.20;;;7.40;99.90;;;;;;5063065;28;20827;-74
2024/03/13 02:04:30;;;;;;;97.88;49.85;;;7.50;99.90;;;;;;5063109;28;20194;-73
2024/03/13 02:06:56;;;;;;;107.85;51.65;;;7.50;99.90;;;;;;5064295;28;20189;-74
2024/03/13 02:09:24;;;;;;;107.28;53.22;;;7.50;99.90;;;;;;5064212;28;20315;-75
2024/03/13 02:11:50;;;;;;;102.10;52.75;;;7.50;99.90;;;;;;5063215;28;20191;-74
2024/03/13 02:14:16;;;;;;;93.95;47.53;;;7.60;99.90;;;;;;5063216;28;20195;-73
2024/03/13 02:16:42;;;;;;;105.53;52.53;;;7.60;99.90;;;;;;5064253;28;20201;-73
2024/03/13 02:19:08;;;;;;;103.90;51.92;;;7.60;99.90;;;;;;5064419;28;20178;-74
2024/03/13 02:21:35;;;;;;;105.15;52.15;;;7.60;99.90;;;;;;5045915;28;20675;-73
2024/03/13 02:24:01;;;;;;;113.03;53.72;;;7.70;99.90;;;;;;5064022;28;20209;-72
2024/03/13 02:26:26;;;;;;;102.78;51.92;;;7.70;99.90;;;;;;5064196;28;20191;-71
2024/03/13 02:28:52;;;;;;;106.65;52.08;;;7.70;99.90;;;;;;5062108;28;20218;-74
2024/03/13 02:31:18;;;;;;;103.18;52.55;;;7.70;99.90;;;;;;5062896;28;20191;-73
2024/03/13 02:33:44;;;;;;;112.65;51.83;;;7.70;99.90;;;;;;5063396;28;20286;-74
2024/03/13 02:36:09;;;;;;;106.57;51.85;;;7.70;99.90;;;;;;5046387;28;20186;-73
2024/03/13 02:38:35;;;;;;;104.95;50.33;;;7.70;99.90;;;;;;5063742;28;20194;-72
2024/03/13 02:41:02;;;;;;;98.43;49.65;;;7.80;99.90;;;;;;5063320;28;20202;-71
2024/03/13 02:43:28;;;;;;;100.78;49.75;;;7.80;99.90;;;;;;5063477;28;20301;-73
2024/03/13 02:45:53;;;;;;;92.90;47.45;;;7.80;99.90;;;;;;5063686;28;20286;-74
2024/03/13 02:48:19;;;;;;;97.85;48.22;;;7.80;99.90;;;;;;5064142;28;20225;-73
2024/03/13 02:50:45;;;;;;;99.05;49.67;;;7.80;99.90;;;;;;5063606;28;20190;-74
2024/03/13 02:53:11;;;;;;;97.18;49.60;;;7.90;99.90;;;;;;5063496;28;20222;-71
2024/03/13 02:55:38;;;;;;;95.45;47.67;;;7.80;99.90;;;;;;5063567;28;20210;-72
2024/03/13 02:58:04;;;;;;;95.88;46.97;;;7.80;99.90;;;;;;5045509;28;20232;-73
2024/03/13 03:00:30;;;;;;;103.57;50.63;;;7.90;99.90;;;;;;5063260;28;20220;-72
2024/03/13 03:02:57;;;;;;;109.82;53.13;;;7.90;99.90;;;;;;5063037;28;20665;-73
2024/03/13 03:05:26;;;;;;;107.47;53.45;;;7.90;99.90;;;;;;5062106;28;20646;-73
2024/03/13 03:07:51;;;;;;;105.45;53.70;;;7.90;99.90;;;;;;5045479;28;20600;-71
2024/03/13 03:10:18;;;;;;;106.30;51.45;;;7.90;99.90;;;;;;5061742;28;20214;-73
2024/03/13 03:12:43;;;;;;;96.45;49.53;;;7.90;99.90;;;;;;5062441;28;20550;-71
2024/03/13 03:15:10;;;;;;;102.65;51.90;;;7.90;99.90;;;;;;5063545;28;20183;-72
2024/03/13 03:17:36;;;;;;;94.38;49.13;;;7.90;99.90;;;;;;5062529;28;20684;-72
2024/03/13 03:20:03;;;;;;;105.43;52.15;;;7.90;99.90;;;;;;5062801;28;20186;-72
2024/03/13 03:22:29;;;;;;;100.93;48.50;;;8.00;99.90;;;;;;5062514;28;20650;-73
2024/03/13 03:24:58;;;;;;;96.18;48.42;;;8.00;99.90;;;;;;5062479;28;20260;-74
2024/03/13 03:27:24;;;;;;;97.93;47.50;;;8.00;99.90;;;;;;5063160;28;20186;-73
2024/03/13 03:29:51;;;;;;;87.90;46.35;;;8.10;99.90;;;;;;5062935;28;20225;-73
2024/03/13 03:32:18;;;;;;;96.68;48.28;;;8.00;99.90;;;;;;5062838;28;21288;-72
2024/03/13 03:34:44;;;;;;;97.47;46.92;;;8.10;99.90;;;;;;5061547;28;20259;-72
2024/03/13 03:37:10;;;;;;;87.82;46.35;;;8.10;99.90;;;;;;5061691;28;20191;-73
2024/03/13 03:39:42;;;;;;;88.63;46.40;;;8.10;99.90;;;;;;5061802;28;20182;-73
2024/03/13 03:42:08;;;;;;;89.80;45.25;;;8.10;99.90;;;;;;5063249;28;20657;-72
2024/03/13 03:44:34;;;;;;;76.70;40.05;;;8.10;99.90;;;;;;5063418;28;20201;-70
2024/03/13 03:47:00;;;;;;;83.03;42.20;;;8.20;99.90;;;;;;5062391;28;20634;-70
2024/03/13 03:49:26;;;;;;;77.85;38.60;;;8.20;99.90;;;;;;5062437;28;20214;-73
2024/03/13 03:51:52;;;;;;;81.05;40.00;;;8.20;99.90;;;;;;5061012;28;20310;-72
2024/03/13 03:58:06;;;;;;;78.07;39.63;;;8.30;99.90;;;;;;5045456;28;20197;-73
2024/03/13 04:00:35;;;;;;;79.63;42.08;;;8.40;99.90;;;;;;5062101;28;20565;-72
2024/03/13 04:03:01;;;;;;;84.38;43.90;;;8.40;99.90;;;;;;5062532;28;20611;-72
2024/03/13 04:05:28;;;;;;;91.32;44.53;;;8.40;99.90;;;;;;5062242;28;20326;-72
2024/03/13 04:07:54;;;;;;;93.85;46.28;;;8.40;99.90;;;;;;5062295;28;20201;-74
2024/03/13 04:10:20;;;;;;;85.53;46.08;;;8.40;99.90;;;;;;5062299;28;20202;-72
2024/03/13 04:12:46;;;;;;;86.93;44.15;;;8.40;99.90;;;;;;5062168;28;20619;-72
2024/03/13 04:15:12;;;;;;;83.35;44.90;;;8.40;99.90;;;;;;5061658;28;20277;-73
2024/03/13 04:17:41;;;;;;;88.57;42.85;;;8.40;99.90;;;;;;5061794;28;20285;-74
2024/03/13 04:20:18;;;;;;;87.05;42.83;;;8.40;99.90;;;;;;5061140;28;20277;-71
2024/03/13 04:22:45;;;;;;;82.10;40.58;;;8.40;99.90;;;;;;5061766;28;20190;-70
2024/03/13 04:25:13;;;;;;;75.72;39.47;;;8.40;99.90;;;;;;5061306;28;20236;-71
2024/03/13 04:27:39;;;;;;;82.90;40.88;;;8.40;99.90;;;;;;5061762;28;20209;-71
2024/03/13 04:30:05;;;;;;;81.70;40.30;;;8.50;99.90;;;;;;5043320;28;20210;-71
2024/03/13 04:32:31;;;;;;;80.85;38.90;;;8.50;99.90;;;;;;5061749;28;20205;-71
2024/03/13 04:35:00;;;;;;;79.95;39.72;;;8.50;99.90;;;;;;5062186;28;20297;-71
2024/03/13 04:37:25;;;;;;;79.20;40.05;;;8.50;99.90;;;;;;5060446;28;20190;-69
2024/03/13 04:39:51;;;;;;;72.25;38.85;;;8.50;99.90;;;;;;5055419;28;20651;-71
2024/03/13 04:42:17;;;;;;;71.55;38.13;;;8.50;99.90;;;;;;5061105;28;20201;-70
2024/03/13 04:44:44;;;;;;;77.97;39.45;;;8.50;99.90;;;;;;5061043;28;20190;-70
2024/03/13 04:47:10;;;;;;;76.95;39.22;;;8.50;99.90;;;;;;5061201;28;20189;-69
2024/03/13 04:49:37;;;;;;;76.78;38.25;;;8.60;99.90;;;;;;5058975;28;20254;-70
2024/03/13 04:52:04;;;;;;;77.07;38.60;;;8.60;99.90;;;;;;5062029;28;20182;-70
2024/03/13 04:54:29;;;;;;;76.10;39.00;;;8.60;99.90;;;;;;5061392;28;20189;-70
2024/03/13 04:56:55;;;;;;;76.38;38.70;;;8.60;99.90;;;;;;5061379;28;20722;-70
2024/03/13 04:59:21;;;;;;;70.90;37.38;;;8.70;99.90;;;;;;5061491;28;20253;-69
2024/03/13 05:01:47;;;;;;;77.47;38.33;;;8.70;99.90;;;;;;5061698;28;20288;-70
2024/03/13 05:04:12;;;;;;;77.28;38.45;;;8.70;99.90;;;;;;5061747;28;20565;-69
2024/03/13 05:06:38;;;;;;;72.97;39.30;;;8.70;99.90;;;;;;5061276;28;20654;-69
2024/03/13 05:09:04;;;;;;;76.20;39.75;;;8.70;99.90;;;;;;5060939;28;20234;-71
2024/03/13 05:11:29;;;;;;;72.05;38.15;;;8.70;99.90;;;;;;5060122;28;20183;-71
2024/03/13 05:13:56;;;;;;;77.32;38.35;;;8.70;99.90;;;;;;5061306;28;20743;-70
2024/03/13 05:16:23;;;;;;;80.57;39.50;;;8.80;99.90;;;;;;5060336;28;20179;-71
2024/03/13 05:18:49;;;;;;;79.30;38.47;;;8.80;99.90;;;;;;5061465;28;20187;-69
2024/03/13 05:21:16;;;;;;;70.47;36.95;;;8.70;99.90;;;;;;5061600;28;20198;-72
2024/03/13 05:23:41;;;;;;;74.28;37.83;;;8.70;99.90;;;;;;5060591;28;20565;-72
2024/03/13 05:26:07;;;;;;;81.50;40.30;;;8.70;99.90;;;;;;5061319;28;20198;-70
2024/03/13 05:28:33;;;;;;;80.18;39.63;;;8.70;99.90;;;;;;5059194;28;20221;-70
2024/03/13 05:30:59;;;;;;;80.53;38.53;;;8.70;99.90;;;;;;5055164;28;20190;-71
2024/03/13 05:33:24;;;;;;;79.20;39.08;;;8.80;99.90;;;;;;5059508;28;20218;-73
2024/03/13 05:35:50;;;;;;;84.13;40.83;;;8.80;99.90;;;;;;5060817;28;20627;-70
2024/03/13 05:38:16;;;;;;;76.55;39.40;;;8.80;99.90;;;;;;5060131;28;20195;-71
2024/03/13 05:40:43;;;;;;;86.38;39.42;;;8.80;99.90;;;;;;5055676;28;20796;-69
2024/03/13 05:43:10;;;;;;;84.50;38.10;;;8.80;99.90;;;;;;5061085;28;20211;-73
2024/03/13 05:45:36;;;;;;;85.53;39.85;;;8.80;99.90;;;;;;5060906;28;20646;-73
2024/03/13 05:48:02;;;;;;;79.93;39.45;;;8.70;99.90;;;;;;5060333;28;20187;-73
2024/03/13 05:50:28;;;;;;;87.10;39.35;;;8.80;99.90;;;;;;5047291;28;20556;-74
2024/03/13 05:52:54;;;;;;;87.03;40.83;;;8.80;99.90;;;;;;5060469;28;20202;-71
2024/03/13 05:55:19;;;;;;;80.93;38.72;;;8.80;99.90;;;;;;5061100;28;20228;-71
2024/03/13 05:57:45;;;;;;;96.50;40.63;;;8.80;99.90;;;;;;5059011;28;20200;-73
2024/03/13 06:00:17;;;;;;;82.20;38.38;;;8.80;99.90;;;;;;5058695;28;20187;-71
2024/03/13 06:02:43;;;;;;;91.32;40.20;;;8.80;99.90;;;;;;5060740;28;20240;-72
2024/03/13 06:05:11;;;;;;;92.38;40.30;;;8.90;99.90;;;;;;5059794;28;20194;-75
2024/03/13 06:07:40;;;;;;;88.57;40.13;;;8.90;99.90;;;;;;5060406;28;20569;-70
2024/03/13 06:10:08;;;;;;;92.88;40.17;;;8.90;99.90;;;;;;5060396;28;20219;-71
2024/03/13 06:12:34;;;;;;;97.53;41.92;;;8.90;99.90;;;;;;5060833;28;20195;-72
2024/03/13 06:15:06;;;;;;;93.10;40.63;;;9.00;99.90;;;;;;5060655;28;20237;-72
2024/03/13 06:17:33;;;;;;;99.93;42.83;;;9.00;99.90;;;;;;5063579;28;20187;-71
2024/03/13 06:19:59;;;;;;;97.65;41.47;;;9.00;99.90;;;;;;5063848;28;20208;-69
2024/03/13 06:22:25;;;;;;;94.40;40.95;;;9.00;99.90;;;;;;5062323;28;20281;-71
2024/03/13 06:24:51;;;;;;;103.43;40.72;;;9.00;99.90;;;;;;5062955;28;20277;-74
2024/03/13 06:27:27;;;;;;;103.63;41.17;;;9.00;99.90;;;;;;5062223;28;20221;-72
2024/03/13 06:30:01;;;;;;;99.65;41.58;;;9.00;99.90;;;;;;5064459;28;20230;-70
2024/03/13 06:32:30;;;;;;;86.75;37.00;;;9.00;99.90;;;;;;5063574;28;20190;-72
2024/03/13 06:34:56;;;;;;;89.97;39.78;;;9.10;99.90;;;;;;5063893;28;20186;-73
2024/03/13 06:37:26;;;;;;;92.53;37.22;;;9.10;99.90;;;;;;5063664;28;20566;-72
2024/03/13 06:39:53;;;;;;;81.40;37.40;;;9.10;99.90;;;;;;5063497;28;20207;-70
2024/03/13 06:42:19;;;;;;;87.32;37.65;;;9.20;99.90;;;;;;5063593;28;20186;-71
2024/03/13 06:44:45;;;;;;;78.38;36.17;;;9.20;99.90;;;;;;5063670;28;20198;-74
2024/03/13 06:47:11;;;;;;;72.65;34.05;;;9.20;99.90;;;;;;5044884;28;20198;-71
2024/03/13 06:49:40;;;;;;;79.25;35.67;;;9.30;99.90;;;;;;5062958;28;20305;-73
2024/03/13 06:52:12;;;;;;;80.55;36.22;;;9.30;99.90;;;;;;5064013;28;20190;-71
2024/03/13 06:54:42;;;;;;;74.03;34.30;;;9.30;99.90;;;;;;5062518;28;20190;-75
2024/03/13 06:57:12;;;;;;;80.45;33.90;;;9.40;99.90;;;;;;5078892;28;20222;-72
2024/03/13 06:59:39;;;;;;;65.88;32.75;;;9.50;99.90;;;;;;5062779;28;20210;-73
2024/03/13 07:02:05;;;;;;;66.03;32.75;;;9.50;99.90;;;;;;5063455;28;20202;-72
2024/03/13 07:04:31;;;;;;;68.32;33.47;;;9.50;99.90;;;;;;5061737;28;20202;-73
2024/03/13 07:07:00;;;;;;;72.63;36.45;;;9.60;99.90;;;;;;5063094;28;20201;-71
2024/03/13 07:09:27;;;;;;;63.92;32.30;;;9.60;99.90;;;;;;5063378;28;20221;-70
2024/03/13 07:11:53;;;;;;;66.85;31.98;;;9.70;99.90;;;;;;5063135;28;20229;-70
2024/03/13 07:14:19;;;;;;;64.72;31.70;;;9.80;99.90;;;;;;5063129;28;20234;-71
2024/03/13 07:16:45;;;;;;;67.05;33.35;;;9.80;99.90;;;;;;5061583;28;20174;-71
2024/03/13 07:19:12;;;;;;;70.80;32.58;;;9.80;99.90;;;;;;5063248;28;20212;-70
2024/03/13 07:21:38;;;;;;;73.55;32.88;;;9.80;99.90;;;;;;5062954;28;20206;-73
2024/03/13 07:24:05;;;;;;;69.07;33.00;;;9.90;99.90;;;;;;5063112;28;20183;-71
2024/03/13 07:26:34;;;;;;;72.28;33.63;;;9.90;99.90;;;;;;5061213;28;20564;-71
2024/03/13 07:29:00;;;;;;;67.25;34.25;;;9.90;99.90;;;;;;5061826;28;20317;-72
2024/03/13 07:31:27;;;;;;;68.95;34.00;;;10.00;99.90;;;;;;5062479;28;20245;-70
2024/03/13 07:33:54;;;;;;;64.03;31.50;;;10.00;99.90;;;;;;5062788;28;20715;-72
2024/03/13 07:36:23;;;;;;;58.50;29.90;;;10.10;99.90;;;;;;5061250;28;20210;-72
2024/03/13 07:38:49;;;;;;;60.97;30.83;;;10.10;99.90;;;;;;5061637;28;20190;-71
2024/03/13 07:41:16;;;;;;;62.65;31.45;;;10.20;99.90;;;;;;5061592;28;20251;-70
2024/03/13 07:43:42;;;;;;;62.40;32.05;;;10.30;99.90;;;;;;5062385;28;20265;-72
2024/03/13 07:46:09;;;;;;;62.33;30.65;;;10.30;99.90;;;;;;5060631;28;20190;-72
2024/03/13 07:48:38;;;;;;;60.35;30.58;;;10.30;99.90;;;;;;5062044;28;20229;-72
2024/03/13 07:51:07;;;;;;;58.10;28.95;;;10.40;99.90;;;;;;5061468;28;20593;-70
2024/03/13 07:53:36;;;;;;;60.50;29.67;;;10.40;99.90;;;;;;5062372;28;20422;-73
2024/03/13 07:56:02;;;;;;;56.67;29.27;;;10.40;99.90;;;;;;5060698;28;20204;-72
2024/03/13 07:58:28;;;;;;;55.78;30.15;;;10.50;99.90;;;;;;5043030;28;20201;-71
2024/03/13 08:00:54;;;;;;;55.17;29.38;;;10.50;99.90;;;;;;5062559;28;20187;-70
2024/03/13 08:03:20;;;;;;;53.40;27.80;;;10.60;99.90;;;;;;5060045;28;20203;-70
2024/03/13 08:05:48;;;;;;;57.47;30.65;;;10.60;99.90;;;;;;5058714;28;20627;-72
2024/03/13 08:08:14;;;;;;;52.60;28.35;;;10.60;99.90;;;;;;5061570;28;20291;-73
2024/03/13 08:10:40;;;;;;;61.75;29.13;;;10.60;99.90;;;;;;5062299;28;20208;-71
2024/03/13 08:13:06;;;;;;;51.65;28.65;;;10.60;99.90;;;;;;5060302;28;21073;-70
2024/03/13 08:15:32;;;;;;;55.92;29.10;;;10.70;99.90;;;;;;5061721;28;20534;-72
2024/03/13 08:17:58;;;;;;;53.45;29.15;;;10.70;99.90;;;;;;5061189;28;20187;-73
2024/03/13 08:20:25;;;;;;;53.72;28.98;;;10.70;99.90;;;;;;5061708;28;20728;-70
2024/03/13 08:22:51;;;;;;;53.53;28.48;;;10.70;99.90;;;;;;5061644;28;20685;-71
2024/03/13 08:25:17;;;;;;;58.20;28.45;;;10.70;99.90;;;;;;5059879;28;20321;-69
2024/03/13 08:27:43;;;;;;;61.17;29.08;;;10.70;99.90;;;;;;5059757;28;20190;-72
2024/03/13 08:30:12;;;;;;;56.40;28.00;;;10.80;99.90;;;;;;5061013;28;20236;-71
2024/03/13 08:32:39;;;;;;;61.35;29.33;;;10.80;99.90;;;;;;5059787;28;20244;-71
2024/03/13 08:35:05;;;;;;;70.93;27.63;;;10.80;99.90;;;;;;5061605;28;20194;-72
2024/03/13 08:37:31;;;;;;;55.65;26.90;;;10.80;99.90;;;;;;5060620;28;20191;-71
2024/03/13 08:40:00;;;;;;;55.20;28.02;;;10.80;99.90;;;;;;5059701;28;20189;-72
2024/03/13 08:42:27;;;;;;;47.40;26.17;;;10.80;99.90;;;;;;5060789;28;20954;-72
2024/03/13 08:44:53;;;;;;;53.03;28.00;;;10.90;99.90;;;;;;5061296;28;20198;-71
2024/03/13 08:47:20;;;;;;;52.85;27.10;;;10.90;99.90;;;;;;5060995;28;20198;-70
2024/03/13 08:49:46;;;;;;;49.30;26.10;;;11.00;99.90;;;;;;5061035;28;20508;-71
2024/03/13 08:52:12;;;;;;;48.90;27.30;;;11.00;99.90;;;;;;5060892;28;20178;-69
2024/03/13 08:54:41;;;;;;;56.47;26.90;;;11.10;99.90;;;;;;5060884;28;20222;-69
2024/03/13 08:57:08;;;;;;;51.08;26.15;;;11.10;99.90;;;;;;5061110;28;20195;-70
2024/03/13 08:59:34;;;;;;;44.35;24.92;;;11.20;99.90;;;;;;5060256;28;20194;-72
2024/03/13 09:02:02;;;;;;;48.80;25.65;;;11.20;99.90;;;;;;5043242;28;20202;-73
2024/03/13 09:04:28;;;;;;;46.90;25.70;;;11.30;99.90;;;;;;5060443;28;20236;-75
2024/03/13 09:06:53;;;;;;;42.03;24.77;;;11.40;99.90;;;;;;5060452;28;20285;-73
2024/03/13 09:09:23;;;;;;;41.50;23.80;;;11.40;99.90;;;;;;5060489;28;20222;-73
2024/03/13 09:11:50;;;;;;;44.60;25.77;;;11.50;99.90;;;;;;5060741;28;20863;-71
2024/03/13 09:14:17;;;;;;;43.03;24.65;;;11.50;99.90;;;;;;5060580;28;20209;-71
2024/03/13 09:16:43;;;;;;;40.72;23.75;;;11.60;99.90;;;;;;5060371;28;20194;-70
2024/03/13 09:19:10;;;;;;;39.28;23.58;;;11.60;99.90;;;;;;5060920;28;20625;-74
2024/03/13 09:21:36;;;;;;;39.42;23.13;;;11.70;99.90;;;;;;5060554;28;20194;-70
2024/03/13 09:24:02;;;;;;;42.67;23.52;;;11.70;99.90;;;;;;5061069;28;20194;-71
2024/03/13 09:26:34;;;;;;;37.80;23.25;;;11.80;99.90;;;;;;5060407;28;20205;-71
2024/03/13 09:29:01;;;;;;;38.25;22.58;;;11.80;99.90;;;;;;5060836;28;20424;-70
2024/03/13 09:31:27;;;;;;;34.25;22.17;;;11.80;99.90;;;;;;5058109;28;21141;-70
2024/03/13 09:33:53;;;;;;;34.85;22.15;;;11.90;99.90;;;;;;5060292;28;20199;-70
2024/03/13 09:36:19;;;;;;;35.88;21.98;;;11.90;99.90;;;;;;5061006;28;20186;-72
2024/03/13 09:38:44;;;;;;;40.17;22.83;;;12.00;99.90;;;;;;5059536;28;20199;-74
2024/03/13 09:41:16;;;;;;;38.35;22.15;;;12.00;99.90;;;;;;5060499;28;20190;-73
2024/03/13 09:43:43;;;;;;;39.20;23.20;;;12.10;99.90;;;;;;5060325;28;20189;-69
2024/03/13 09:46:13;;;;;;;36.70;22.45;;;12.20;99.90;;;;;;5060293;28;20551;-72
2024/03/13 09:48:42;;;;;;;36.15;21.63;;;12.30;99.90;;;;;;5060497;28;20217;-70
2024/03/13 09:51:08;;;;;;;33.90;21.67;;;12.40;99.90;;;;;;5060177;28;20243;-70
2024/03/13 09:53:37;;;;;;;37.05;23.17;;;12.50;99.90;;;;;;5050045;28;20186;-71
2024/03/13 09:56:03;;;;;;;35.35;21.92;;;12.60;99.90;;;;;;5064161;28;21074;-71
2024/03/13 09:58:30;;;;;;;35.58;21.52;;;12.60;99.90;;;;;;5062297;28;20289;-69
2024/03/13 10:00:59;;;;;;;34.85;21.63;;;12.70;99.90;;;;;;5062849;28;20918;-73
2024/03/13 10:03:28;;;;;;;36.22;21.50;;;12.70;99.90;;;;;;5063757;28;20197;-71
2024/03/13 10:06:10;;;;;;;33.70;21.20;;;12.70;99.90;;;;;;5063886;28;20239;-71
2024/03/13 10:08:40;;;;;;;33.47;20.52;;;12.70;99.90;;;;;;5063214;28;20666;-71
2024/03/13 10:11:08;;;;;;;32.20;21.27;;;12.70;99.90;;;;;;5063488;28;20430;-72
2024/03/13 10:13:38;;;;;;;34.30;21.33;;;12.80;99.90;;;;;;5062967;28;20186;-70
2024/03/13 10:16:07;;;;;;;33.08;20.50;;;12.80;99.90;;;;;;5062570;28;20186;-71
2024/03/13 10:18:36;;;;;;;36.33;20.95;;;12.80;99.90;;;;;;5062858;28;20194;-69
2024/03/13 10:21:13;;;;;;;32.05;20.23;;;12.80;99.90;;;;;;5064208;28;20251;-69
2024/03/13 10:23:44;;;;;;;35.50;20.90;;;12.90;99.90;;;;;;5064060;28;20733;-73
2024/03/13 10:26:12;;;;;;;37.88;21.23;;;12.80;99.90;;;;;;5064470;28;20700;-71
2024/03/13 10:28:38;;;;;;;33.08;21.02;;;12.90;99.90;;;;;;5063612;28;20210;-71
2024/03/13 10:31:04;;;;;;;35.20;21.75;;;12.90;99.90;;;;;;5064162;28;20657;-71
2024/03/13 10:33:31;;;;;;;36.25;21.90;;;13.00;99.90;;;;;;5063823;28;20228;-73
2024/03/13 10:35:57;;;;;;;36.28;22.05;;;13.00;99.90;;;;;;5062576;28;20190;-70
2024/03/13 10:38:26;;;;;;;42.40;22.75;;;13.00;99.90;;;;;;5063542;28;20182;-73
2024/03/13 10:40:52;;;;;;;38.08;22.95;;;13.10;99.90;;;;;;5063195;28;20202;-72
2024/03/13 10:43:18;;;;;;;38.40;23.30;;;13.10;99.90;;;;;;5045530;28;20630;-71
2024/03/13 10:45:48;;;;;;;41.92;23.42;;;13.10;99.90;;;;;;5062365;28;20193;-71
2024/03/13 10:48:16;;;;;;;38.67;22.55;;;13.10;99.90;;;;;;5062442;28;20236;-70
2024/03/13 10:50:44;;;;;;;41.08;22.98;;;13.20;99.90;;;;;;5063621;28;20214;-72
2024/03/13 10:53:10;;;;;;;36.10;23.25;;;13.20;99.90;;;;;;5063018;28;20261;-72
2024/03/13 10:55:37;;;;;;;39.08;22.70;;;13.30;99.90;;;;;;5061664;28;20222;-71
2024/03/13 10:58:03;;;;;;;45.65;22.95;;;13.30;99.90;;;;;;5062894;28;20187;-71
2024/03/13 11:00:30;;;;;;;40.65;21.27;;;13.40;99.90;;;;;;5063681;28;20681;-70
2024/03/13 11:02:59;;;;;;;36.70;21.25;;;13.50;99.90;;;;;;5062450;28;20574;-72
2024/03/13 11:05:25;;;;;;;41.88;21.33;;;13.40;99.90;;;;;;5063277;28;20266;-71
2024/03/13 11:07:52;;;;;;;36.50;21.65;;;13.40;99.90;;;;;;5063471;28;20210;-72
2024/03/13 11:10:21;;;;;;;32.70;20.42;;;13.40;99.90;;;;;;5062229;28;20642;-70
2024/03/13 11:12:50;;;;;;;43.15;21.08;;;13.40;99.90;;;;;;5062812;28;20252;-70
2024/03/13 11:15:30;;;;;;;37.25;21.23;;;13.40;99.90;;;;;;5063071;28;20986;-73
2024/03/13 11:18:00;;;;;;;38.75;21.50;;;13.40;99.90;;;;;;5061593;28;20916;-71
2024/03/13 11:20:39;;;;;;;37.13;21.00;;;13.40;99.90;;;;;;5063632;28;20654;-70
2024/03/13 11:23:27;;;;;;;36.97;21.48;;;13.40;99.90;;;;;;5062182;28;21244;-70
2024/03/13 11:26:01;;;;;;;35.13;21.70;;;13.30;99.90;;;;;;5062823;28;20186;-71
2024/03/13 11:28:32;;;;;;;36.40;20.92;;;13.30;99.90;;;;;;5060421;28;20591;-70
2024/03/13 11:30:58;;;;;;;35.03;20.77;;;13.40;99.90;;;;;;5062566;28;20265;-69
2024/03/13 11:33:25;;;;;;;43.70;21.40;;;13.40;99.90;;;;;;5063104;28;20549;-72
2024/03/13 11:35:55;;;;;;;32.40;20.65;;;13.30;99.90;;;;;;5060288;28;20643;-74
2024/03/13 11:38:22;;;;;;;37.50;19.67;;;13.30;99.90;;;;;;5062390;28;20201;-69
2024/03/13 11:40:50;;;;;;;36.15;19.95;;;13.30;99.90;;;;;;5062532;28;20194;-72
2024/03/13 11:43:23;;;;;;;38.53;19.10;;;13.30;99.90;;;;;;5062257;28;20266;-72
2024/03/13 11:45:49;;;;;;;38.75;20.35;;;13.30;99.90;;;;;;5061576;28;20194;-72
2024/03/13 11:48:16;;;;;;;43.50;20.05;;;13.30;99.90;;;;;;5062833;28;20178;-72
2024/03/13 11:51:00;;;;;;;34.85;18.20;;;13.30;99.90;;;;;;5060405;28;20670;-68
2024/03/13 11:53:33;;;;;;;34.88;17.83;;;13.30;99.90;;;;;;5062229;28;20198;-72
2024/03/13 11:56:01;;;;;;;34.47;16.20;;;13.30;99.90;;;;;;5061978;28;20201;-70
2024/03/13 11:58:32;;;;;;;29.10;15.85;;;13.30;99.90;;;;;;5062123;28;20218;-70
2024/03/13 12:01:01;;;;;;;30.35;15.75;;;13.30;99.90;;;;;;5061781;28;20323;-72
2024/03/13 12:03:34;;;;;;;31.88;15.20;;;13.30;99.90;;;;;;5061139;28;20699;-72
2024/03/13 12:06:00;;;;;;;36.15;15.02;;;13.30;99.90;;;;;;5061206;28;20649;-72
2024/03/13 12:08:27;;;;;;;31.92;15.10;;;13.30;99.90;;;;;;5061996;28;20269;-72
2024/03/13 12:10:55;;;;;;;34.35;15.00;;;13.30;99.90;;;;;;5061652;28;20222;-70
2024/03/13 12:13:24;;;;;;;30.20;14.43;;;13.30;99.90;;;;;;5061183;28;20244;-70
2024/03/13 12:15:50;;;;;;;33.28;13.77;;;13.30;99.90;;;;;;5062667;28;20277;-72
2024/03/13 12:18:16;;;;;;;29.25;12.82;;;13.30;99.90;;;;;;5061612;28;20273;-70
2024/03/13 12:20:45;;;;;;;28.75;13.70;;;13.30;99.90;;;;;;5060969;28;20220;-70
2024/03/13 12:23:17;;;;;;;30.48;13.80;;;13.30;99.90;;;;;;5061813;28;20259;-69
2024/03/13 12:25:44;;;;;;;34.25;13.63;;;13.30;99.90;;;;;;5061554;28;20197;-71
2024/03/13 12:28:16;;;;;;;26.88;13.10;;;13.40;99.90;;;;;;5061270;28;20194;-71
2024/03/13 12:30:44;;;;;;;29.83;13.27;;;13.40;99.90;;;;;;5061464;28;20297;-69
2024/03/13 12:33:14;;;;;;;36.85;14.07;;;13.40;99.90;;;;;;5061647;28;20205;-71
2024/03/13 12:35:49;;;;;;;26.83;12.77;;;13.40;99.90;;;;;;5061129;28;20191;-71
2024/03/13 12:38:15;;;;;;;31.67;13.38;;;13.50;99.90;;;;;;5061471;28;20198;-72
2024/03/13 12:40:45;;;;;;;29.88;13.55;;;13.50;99.90;;;;;;5061320;28;20230;-71
2024/03/13 12:43:14;;;;;;;28.23;12.45;;;13.50;99.90;;;;;;5061718;28;20195;-70
2024/03/13 12:45:39;;;;;;;33.03;12.55;;;13.60;99.90;;;;;;5059632;28;20577;-72
2024/03/13 12:48:09;;;;;;;27.45;12.00;;;13.70;99.90;;;;;;5061098;28;20300;-71
2024/03/13 12:50:35;;;;;;;29.15;12.18;;;13.80;99.90;;;;;;5059479;28;20225;-71
2024/03/13 12:53:01;;;;;;;29.02;12.57;;;13.80;99.90;;;;;;5061192;28;20187;-72
2024/03/13 12:55:26;;;;;;;27.83;11.82;;;13.90;99.90;;;;;;5061231;28;20223;-70